sensor_id;sensor_type;location;lat;lon;timestamp;P1;durP1;ratioP1;P2;durP2;ratioP2
34204;SDS011;20471;49.680;20.074;2023-01-30T00:01:15;69.40;;;36.30;;
34204;SDS011;20471;49.680;20.074;2023-01-30T00:03:45;68.40;;;35.80;;
34204;SDS011;20471;49.680;20.074;2023-01-30T00:06:13;61.30;;;33.70;;
34204;SDS011;20471;49.680;20.074;2023-01-30T00:08:42;65.80;;;34.40;;
34204;SDS011;20471;49.680;20.074;2023-01-30T00:11:11;73.80;;;35.90;;
34204;SDS011;20471;49.680;20.074;2023-01-30T00:13:40;78.30;;;37.80;;
34204;SDS011;20471;49.680;20.074;2023-01-30T00:16:10;69.30;;;35.70;;
34204;SDS011;20471;49.680;20.074;2023-01-30T00:18:39;65.70;;;34.30;;
34204;SDS011;20471;49.680;20.074;2023-01-30T00:21:09;57.00;;;32.40;;
34204;SDS011;20471;49.680;20.074;2023-01-30T00:23:38;63.30;;;32.70;;
34204;SDS011;20471;49.680;20.074;2023-01-30T00:26:07;65.80;;;34.90;;
34204;SDS011;20471;49.680;20.074;2023-01-30T00:28:36;74.10;;;35.90;;
34204;SDS011;20471;49.680;20.074;2023-01-30T00:31:04;65.50;;;34.40;;
34204;SDS011;20471;49.680;20.074;2023-01-30T00:33:33;66.70;;;35.10;;
34204;SDS011;20471;49.680;20.074;2023-01-30T00:36:04;48.70;;;25.40;;
34204;SDS011;20471;49.680;20.074;2023-01-30T00:38:32;63.30;;;33.60;;
34204;SDS011;20471;49.680;20.074;2023-01-30T00:41:01;59.10;;;32.30;;
34204;SDS011;20471;49.680;20.074;2023-01-30T00:43:29;59.40;;;33.40;;
34204;SDS011;20471;49.680;20.074;2023-01-30T00:46:25;62.80;;;33.70;;
34204;SDS011;20471;49.680;20.074;2023-01-30T00:49:10;56.70;;;31.90;;
34204;SDS011;20471;49.680;20.074;2023-01-30T00:51:39;57.60;;;31.10;;
34204;SDS011;20471;49.680;20.074;2023-01-30T00:54:07;58.20;;;31.10;;
34204;SDS011;20471;49.680;20.074;2023-01-30T00:56:35;54.50;;;29.50;;
34204;SDS011;20471;49.680;20.074;2023-01-30T00:59:03;55.60;;;30.00;;
34204;SDS011;20471;49.680;20.074;2023-01-30T01:01:31;59.30;;;30.50;;
34204;SDS011;20471;49.680;20.074;2023-01-30T01:03:59;58.60;;;32.00;;
34204;SDS011;20471;49.680;20.074;2023-01-30T01:06:27;63.40;;;34.90;;
34204;SDS011;20471;49.680;20.074;2023-01-30T01:08:55;57.20;;;30.60;;
34204;SDS011;20471;49.680;20.074;2023-01-30T01:11:23;62.70;;;33.10;;
34204;SDS011;20471;49.680;20.074;2023-01-30T01:13:55;59.90;;;32.10;;
34204;SDS011;20471;49.680;20.074;2023-01-30T01:16:25;62.30;;;31.70;;
34204;SDS011;20471;49.680;20.074;2023-01-30T01:18:54;62.20;;;33.80;;
34204;SDS011;20471;49.680;20.074;2023-01-30T01:21:23;68.70;;;33.90;;
34204;SDS011;20471;49.680;20.074;2023-01-30T01:23:51;62.50;;;33.80;;
34204;SDS011;20471;49.680;20.074;2023-01-30T01:26:21;61.10;;;33.10;;
34204;SDS011;20471;49.680;20.074;2023-01-30T01:28:54;50.40;;;28.10;;
34204;SDS011;20471;49.680;20.074;2023-01-30T01:31:23;42.50;;;23.70;;
34204;SDS011;20471;49.680;20.074;2023-01-30T01:33:51;37.90;;;21.00;;
34204;SDS011;20471;49.680;20.074;2023-01-30T01:36:20;28.70;;;18.00;;
34204;SDS011;20471;49.680;20.074;2023-01-30T01:38:48;29.10;;;17.80;;
34204;SDS011;20471;49.680;20.074;2023-01-30T01:41:16;32.10;;;18.00;;
34204;SDS011;20471;49.680;20.074;2023-01-30T01:44:04;28.40;;;17.40;;
34204;SDS011;20471;49.680;20.074;2023-01-30T01:46:34;29.80;;;17.60;;
34204;SDS011;20471;49.680;20.074;2023-01-30T01:51:41;28.70;;;18.50;;
34204;SDS011;20471;49.680;20.074;2023-01-30T01:54:22;31.10;;;19.80;;
34204;SDS011;20471;49.680;20.074;2023-01-30T01:57:03;27.70;;;18.30;;
34204;SDS011;20471;49.680;20.074;2023-01-30T01:59:38;29.80;;;19.00;;
34204;SDS011;20471;49.680;20.074;2023-01-30T02:02:11;30.60;;;18.10;;
34204;SDS011;20471;49.680;20.074;2023-01-30T02:04:42;32.10;;;18.50;;
34204;SDS011;20471;49.680;20.074;2023-01-30T02:07:42;29.10;;;18.30;;
34204;SDS011;20471;49.680;20.074;2023-01-30T02:10:16;29.90;;;18.30;;
34204;SDS011;20471;49.680;20.074;2023-01-30T02:12:47;27.10;;;17.90;;
34204;SDS011;20471;49.680;20.074;2023-01-30T02:15:17;27.50;;;17.80;;
34204;SDS011;20471;49.680;20.074;2023-01-30T02:17:46;28.60;;;18.40;;
34204;SDS011;20471;49.680;20.074;2023-01-30T02:23:33;28.40;;;17.80;;
34204;SDS011;20471;49.680;20.074;2023-01-30T02:29:45;32.00;;;17.80;;
34204;SDS011;20471;49.680;20.074;2023-01-30T02:35:30;26.40;;;17.30;;
34204;SDS011;20471;49.680;20.074;2023-01-30T02:46:19;25.10;;;16.70;;
34204;SDS011;20471;49.680;20.074;2023-01-30T02:49:01;24.70;;;17.50;;
34204;SDS011;20471;49.680;20.074;2023-01-30T02:51:40;28.80;;;17.40;;
34204;SDS011;20471;49.680;20.074;2023-01-30T02:54:11;27.20;;;17.10;;
34204;SDS011;20471;49.680;20.074;2023-01-30T02:56:48;26.30;;;16.70;;
34204;SDS011;20471;49.680;20.074;2023-01-30T03:02:26;28.20;;;17.80;;
34204;SDS011;20471;49.680;20.074;2023-01-30T03:07:48;28.30;;;17.70;;
34204;SDS011;20471;49.680;20.074;2023-01-30T03:10:37;26.30;;;17.10;;
34204;SDS011;20471;49.680;20.074;2023-01-30T03:16:17;26.20;;;17.10;;
34204;SDS011;20471;49.680;20.074;2023-01-30T03:18:49;27.70;;;17.60;;
34204;SDS011;20471;49.680;20.074;2023-01-30T03:21:18;31.60;;;19.20;;
34204;SDS011;20471;49.680;20.074;2023-01-30T03:23:46;32.10;;;19.20;;
34204;SDS011;20471;49.680;20.074;2023-01-30T03:26:17;27.10;;;17.70;;
34204;SDS011;20471;49.680;20.074;2023-01-30T03:28:50;30.30;;;18.10;;
34204;SDS011;20471;49.680;20.074;2023-01-30T03:31:19;30.70;;;19.10;;
34204;SDS011;20471;49.680;20.074;2023-01-30T03:33:47;27.30;;;17.40;;
34204;SDS011;20471;49.680;20.074;2023-01-30T03:36:15;27.40;;;17.60;;
34204;SDS011;20471;49.680;20.074;2023-01-30T03:38:44;26.60;;;15.90;;
34204;SDS011;20471;49.680;20.074;2023-01-30T03:41:12;28.20;;;16.50;;
34204;SDS011;20471;49.680;20.074;2023-01-30T03:43:40;27.00;;;16.70;;
34204;SDS011;20471;49.680;20.074;2023-01-30T03:46:08;31.20;;;17.80;;
34204;SDS011;20471;49.680;20.074;2023-01-30T03:48:36;26.70;;;17.30;;
34204;SDS011;20471;49.680;20.074;2023-01-30T03:51:04;26.70;;;16.30;;
34204;SDS011;20471;49.680;20.074;2023-01-30T03:53:32;27.20;;;16.10;;
34204;SDS011;20471;49.680;20.074;2023-01-30T03:56:00;27.10;;;15.70;;
34204;SDS011;20471;49.680;20.074;2023-01-30T03:58:28;25.40;;;15.60;;
34204;SDS011;20471;49.680;20.074;2023-01-30T04:00:56;24.00;;;13.80;;
34204;SDS011;20471;49.680;20.074;2023-01-30T04:03:24;22.20;;;14.40;;
34204;SDS011;20471;49.680;20.074;2023-01-30T04:05:53;21.00;;;13.60;;
34204;SDS011;20471;49.680;20.074;2023-01-30T04:08:21;22.90;;;14.60;;
34204;SDS011;20471;49.680;20.074;2023-01-30T04:10:49;22.10;;;13.20;;
34204;SDS011;20471;49.680;20.074;2023-01-30T04:13:17;25.30;;;14.10;;
34204;SDS011;20471;49.680;20.074;2023-01-30T04:15:45;23.90;;;15.00;;
34204;SDS011;20471;49.680;20.074;2023-01-30T04:18:13;23.00;;;14.90;;
34204;SDS011;20471;49.680;20.074;2023-01-30T04:20:41;24.60;;;15.90;;
34204;SDS011;20471;49.680;20.074;2023-01-30T04:23:09;23.30;;;14.90;;
34204;SDS011;20471;49.680;20.074;2023-01-30T04:25:37;24.60;;;14.80;;
34204;SDS011;20471;49.680;20.074;2023-01-30T04:28:05;23.00;;;14.90;;
34204;SDS011;20471;49.680;20.074;2023-01-30T04:30:33;22.00;;;13.50;;
34204;SDS011;20471;49.680;20.074;2023-01-30T04:33:02;23.30;;;13.00;;
34204;SDS011;20471;49.680;20.074;2023-01-30T04:35:30;24.50;;;13.80;;
34204;SDS011;20471;49.680;20.074;2023-01-30T04:37:58;19.00;;;13.30;;
34204;SDS011;20471;49.680;20.074;2023-01-30T04:40:26;22.60;;;12.60;;
34204;SDS011;20471;49.680;20.074;2023-01-30T04:42:54;20.70;;;13.30;;
34204;SDS011;20471;49.680;20.074;2023-01-30T04:45:22;19.60;;;12.60;;
34204;SDS011;20471;49.680;20.074;2023-01-30T04:47:51;19.50;;;12.70;;
34204;SDS011;20471;49.680;20.074;2023-01-30T04:50:19;19.50;;;11.70;;
34204;SDS011;20471;49.680;20.074;2023-01-30T04:52:47;19.80;;;11.90;;
34204;SDS011;20471;49.680;20.074;2023-01-30T04:55:15;16.80;;;11.30;;
34204;SDS011;20471;49.680;20.074;2023-01-30T04:57:43;17.10;;;11.40;;
34204;SDS011;20471;49.680;20.074;2023-01-30T05:00:11;20.70;;;12.10;;
34204;SDS011;20471;49.680;20.074;2023-01-30T05:02:39;15.40;;;10.70;;
34204;SDS011;20471;49.680;20.074;2023-01-30T05:05:08;17.20;;;10.90;;
34204;SDS011;20471;49.680;20.074;2023-01-30T05:07:36;17.20;;;11.80;;
34204;SDS011;20471;49.680;20.074;2023-01-30T05:10:04;20.60;;;12.00;;
34204;SDS011;20471;49.680;20.074;2023-01-30T05:12:33;17.10;;;11.90;;
34204;SDS011;20471;49.680;20.074;2023-01-30T05:15:01;19.00;;;10.70;;
34204;SDS011;20471;49.680;20.074;2023-01-30T05:17:29;15.50;;;10.50;;
34204;SDS011;20471;49.680;20.074;2023-01-30T05:19:57;14.00;;;10.00;;
34204;SDS011;20471;49.680;20.074;2023-01-30T05:22:25;16.30;;;10.10;;
34204;SDS011;20471;49.680;20.074;2023-01-30T05:24:53;12.90;;;9.10;;
34204;SDS011;20471;49.680;20.074;2023-01-30T05:27:21;15.80;;;9.70;;
34204;SDS011;20471;49.680;20.074;2023-01-30T05:29:49;13.00;;;8.70;;
34204;SDS011;20471;49.680;20.074;2023-01-30T05:32:18;14.00;;;9.30;;
34204;SDS011;20471;49.680;20.074;2023-01-30T05:34:47;12.30;;;9.00;;
34204;SDS011;20471;49.680;20.074;2023-01-30T05:37:15;12.60;;;8.70;;
34204;SDS011;20471;49.680;20.074;2023-01-30T05:39:43;14.70;;;9.10;;
34204;SDS011;20471;49.680;20.074;2023-01-30T05:42:11;15.00;;;8.70;;
34204;SDS011;20471;49.680;20.074;2023-01-30T05:44:39;15.10;;;9.40;;
34204;SDS011;20471;49.680;20.074;2023-01-30T05:47:07;13.80;;;8.80;;
34204;SDS011;20471;49.680;20.074;2023-01-30T05:49:35;15.90;;;9.70;;
34204;SDS011;20471;49.680;20.074;2023-01-30T05:52:03;19.40;;;9.60;;
34204;SDS011;20471;49.680;20.074;2023-01-30T05:54:33;15.90;;;9.20;;
34204;SDS011;20471;49.680;20.074;2023-01-30T05:57:01;17.60;;;10.90;;
34204;SDS011;20471;49.680;20.074;2023-01-30T05:59:29;17.00;;;10.80;;
34204;SDS011;20471;49.680;20.074;2023-01-30T06:01:57;18.50;;;11.40;;
34204;SDS011;20471;49.680;20.074;2023-01-30T06:04:25;16.00;;;10.00;;
34204;SDS011;20471;49.680;20.074;2023-01-30T06:06:53;18.30;;;10.20;;
34204;SDS011;20471;49.680;20.074;2023-01-30T06:09:21;17.80;;;10.70;;
34204;SDS011;20471;49.680;20.074;2023-01-30T06:11:49;17.40;;;10.20;;
34204;SDS011;20471;49.680;20.074;2023-01-30T06:14:20;19.30;;;11.30;;
34204;SDS011;20471;49.680;20.074;2023-01-30T06:16:48;21.00;;;10.90;;
34204;SDS011;20471;49.680;20.074;2023-01-30T06:19:17;19.90;;;10.70;;
34204;SDS011;20471;49.680;20.074;2023-01-30T06:21:45;18.00;;;11.00;;
34204;SDS011;20471;49.680;20.074;2023-01-30T06:24:13;16.00;;;10.30;;
34204;SDS011;20471;49.680;20.074;2023-01-30T06:26:41;20.90;;;12.00;;
34204;SDS011;20471;49.680;20.074;2023-01-30T06:29:09;20.00;;;11.20;;
34204;SDS011;20471;49.680;20.074;2023-01-30T06:31:37;21.30;;;11.40;;
34204;SDS011;20471;49.680;20.074;2023-01-30T06:34:05;18.80;;;11.30;;
34204;SDS011;20471;49.680;20.074;2023-01-30T06:36:33;18.10;;;11.50;;
34204;SDS011;20471;49.680;20.074;2023-01-30T06:39:01;18.70;;;11.20;;
34204;SDS011;20471;49.680;20.074;2023-01-30T06:41:30;19.10;;;11.80;;
34204;SDS011;20471;49.680;20.074;2023-01-30T06:43:58;21.00;;;12.20;;
34204;SDS011;20471;49.680;20.074;2023-01-30T06:46:26;18.90;;;10.90;;
34204;SDS011;20471;49.680;20.074;2023-01-30T06:48:54;17.80;;;11.60;;
34204;SDS011;20471;49.680;20.074;2023-01-30T06:51:22;17.50;;;11.30;;
34204;SDS011;20471;49.680;20.074;2023-01-30T06:53:52;19.10;;;11.60;;
34204;SDS011;20471;49.680;20.074;2023-01-30T06:56:20;18.20;;;11.60;;
34204;SDS011;20471;49.680;20.074;2023-01-30T06:58:49;20.10;;;12.80;;
34204;SDS011;20471;49.680;20.074;2023-01-30T07:01:17;19.10;;;12.10;;
34204;SDS011;20471;49.680;20.074;2023-01-30T07:03:46;18.80;;;12.30;;
34204;SDS011;20471;49.680;20.074;2023-01-30T07:06:15;22.20;;;12.70;;
34204;SDS011;20471;49.680;20.074;2023-01-30T07:08:43;22.80;;;13.30;;
34204;SDS011;20471;49.680;20.074;2023-01-30T07:31:10;20.30;;;14.80;;
34204;SDS011;20471;49.680;20.074;2023-01-30T07:33:38;19.80;;;12.90;;
34204;SDS011;20471;49.680;20.074;2023-01-30T07:36:06;19.60;;;13.90;;
34204;SDS011;20471;49.680;20.074;2023-01-30T07:38:34;22.50;;;13.30;;
34204;SDS011;20471;49.680;20.074;2023-01-30T07:41:02;19.70;;;12.20;;
34204;SDS011;20471;49.680;20.074;2023-01-30T07:43:31;19.90;;;12.80;;
34204;SDS011;20471;49.680;20.074;2023-01-30T07:45:59;21.10;;;14.20;;
34204;SDS011;20471;49.680;20.074;2023-01-30T07:48:28;21.30;;;13.90;;
34204;SDS011;20471;49.680;20.074;2023-01-30T07:50:56;20.10;;;12.70;;
34204;SDS011;20471;49.680;20.074;2023-01-30T07:53:24;26.30;;;14.20;;
34204;SDS011;20471;49.680;20.074;2023-01-30T07:55:52;20.70;;;13.70;;
34204;SDS011;20471;49.680;20.074;2023-01-30T07:58:20;20.40;;;12.80;;
34204;SDS011;20471;49.680;20.074;2023-01-30T08:00:49;19.90;;;11.80;;
34204;SDS011;20471;49.680;20.074;2023-01-30T08:03:21;19.70;;;12.80;;
34204;SDS011;20471;49.680;20.074;2023-01-30T08:05:50;22.50;;;13.60;;
34204;SDS011;20471;49.680;20.074;2023-01-30T08:08:19;22.60;;;13.60;;
34204;SDS011;20471;49.680;20.074;2023-01-30T08:10:47;21.80;;;13.50;;
34204;SDS011;20471;49.680;20.074;2023-01-30T08:13:16;22.60;;;13.70;;
34204;SDS011;20471;49.680;20.074;2023-01-30T08:15:44;20.80;;;14.00;;
34204;SDS011;20471;49.680;20.074;2023-01-30T08:18:12;26.90;;;14.20;;
34204;SDS011;20471;49.680;20.074;2023-01-30T08:20:41;21.70;;;13.40;;
34204;SDS011;20471;49.680;20.074;2023-01-30T08:23:10;22.40;;;14.10;;
34204;SDS011;20471;49.680;20.074;2023-01-30T08:25:38;23.50;;;13.40;;
34204;SDS011;20471;49.680;20.074;2023-01-30T08:28:06;21.80;;;12.90;;
34204;SDS011;20471;49.680;20.074;2023-01-30T08:30:34;18.80;;;12.30;;
34204;SDS011;20471;49.680;20.074;2023-01-30T08:33:02;20.20;;;12.30;;
34204;SDS011;20471;49.680;20.074;2023-01-30T08:35:31;20.10;;;12.10;;
34204;SDS011;20471;49.680;20.074;2023-01-30T08:37:59;19.90;;;11.80;;
34204;SDS011;20471;49.680;20.074;2023-01-30T08:40:28;22.60;;;11.80;;
34204;SDS011;20471;49.680;20.074;2023-01-30T08:42:56;19.40;;;11.90;;
34204;SDS011;20471;49.680;20.074;2023-01-30T08:45:25;20.20;;;12.20;;
34204;SDS011;20471;49.680;20.074;2023-01-30T08:47:56;21.30;;;12.60;;
34204;SDS011;20471;49.680;20.074;2023-01-30T08:50:26;17.70;;;11.30;;
34204;SDS011;20471;49.680;20.074;2023-01-30T08:52:55;25.40;;;14.20;;
34204;SDS011;20471;49.680;20.074;2023-01-30T08:55:23;26.40;;;14.10;;
34204;SDS011;20471;49.680;20.074;2023-01-30T08:57:51;24.10;;;12.90;;
34204;SDS011;20471;49.680;20.074;2023-01-30T09:00:23;21.80;;;12.20;;
34204;SDS011;20471;49.680;20.074;2023-01-30T09:02:52;20.30;;;13.10;;
34204;SDS011;20471;49.680;20.074;2023-01-30T09:05:21;22.40;;;13.70;;
34204;SDS011;20471;49.680;20.074;2023-01-30T09:07:50;19.80;;;12.80;;
34204;SDS011;20471;49.680;20.074;2023-01-30T09:10:18;23.60;;;14.10;;
34204;SDS011;20471;49.680;20.074;2023-01-30T09:12:47;21.10;;;13.60;;
34204;SDS011;20471;49.680;20.074;2023-01-30T09:15:15;19.80;;;12.90;;
34204;SDS011;20471;49.680;20.074;2023-01-30T09:17:43;18.20;;;12.20;;
34204;SDS011;20471;49.680;20.074;2023-01-30T09:20:12;20.60;;;13.00;;
34204;SDS011;20471;49.680;20.074;2023-01-30T09:22:40;20.40;;;12.60;;
34204;SDS011;20471;49.680;20.074;2023-01-30T09:25:08;24.20;;;14.10;;
34204;SDS011;20471;49.680;20.074;2023-01-30T09:27:36;22.20;;;13.20;;
34204;SDS011;20471;49.680;20.074;2023-01-30T09:30:05;32.40;;;17.00;;
34204;SDS011;20471;49.680;20.074;2023-01-30T09:32:33;42.30;;;20.50;;
34204;SDS011;20471;49.680;20.074;2023-01-30T09:35:03;24.80;;;15.30;;
34204;SDS011;20471;49.680;20.074;2023-01-30T09:37:31;20.70;;;13.40;;
34204;SDS011;20471;49.680;20.074;2023-01-30T09:39:59;20.30;;;13.00;;
34204;SDS011;20471;49.680;20.074;2023-01-30T09:42:31;19.50;;;12.60;;
34204;SDS011;20471;49.680;20.074;2023-01-30T09:45:10;16.40;;;11.50;;
34204;SDS011;20471;49.680;20.074;2023-01-30T09:48:14;25.30;;;14.60;;
34204;SDS011;20471;49.680;20.074;2023-01-30T09:56:31;22.00;;;12.80;;
34204;SDS011;20471;49.680;20.074;2023-01-30T09:59:02;22.40;;;13.90;;
34204;SDS011;20471;49.680;20.074;2023-01-30T10:06:53;20.70;;;12.80;;
34204;SDS011;20471;49.680;20.074;2023-01-30T10:15:14;21.50;;;13.10;;
34204;SDS011;20471;49.680;20.074;2023-01-30T10:21:17;18.10;;;12.20;;
34204;SDS011;20471;49.680;20.074;2023-01-30T10:23:54;19.70;;;13.30;;
34204;SDS011;20471;49.680;20.074;2023-01-30T10:26:35;23.10;;;13.80;;
34204;SDS011;20471;49.680;20.074;2023-01-30T10:29:20;15.10;;;9.80;;
34204;SDS011;20471;49.680;20.074;2023-01-30T10:31:56;18.70;;;12.50;;
34204;SDS011;20471;49.680;20.074;2023-01-30T10:34:34;23.60;;;14.40;;
34204;SDS011;20471;49.680;20.074;2023-01-30T10:39:58;20.10;;;12.40;;
34204;SDS011;20471;49.680;20.074;2023-01-30T10:45:21;20.20;;;12.00;;
34204;SDS011;20471;49.680;20.074;2023-01-30T10:50:54;19.40;;;12.80;;
34204;SDS011;20471;49.680;20.074;2023-01-30T10:56:33;21.90;;;12.80;;
34204;SDS011;20471;49.680;20.074;2023-01-30T10:59:22;20.30;;;13.20;;
34204;SDS011;20471;49.680;20.074;2023-01-30T11:02:15;25.80;;;15.20;;
34204;SDS011;20471;49.680;20.074;2023-01-30T11:04:58;27.10;;;15.50;;
34204;SDS011;20471;49.680;20.074;2023-01-30T11:07:29;22.50;;;15.20;;
34204;SDS011;20471;49.680;20.074;2023-01-30T11:09:59;25.60;;;15.50;;
34204;SDS011;20471;49.680;20.074;2023-01-30T11:12:27;27.10;;;16.80;;
34204;SDS011;20471;49.680;20.074;2023-01-30T11:14:57;22.80;;;15.10;;
34204;SDS011;20471;49.680;20.074;2023-01-30T11:17:31;26.50;;;15.50;;
34204;SDS011;20471;49.680;20.074;2023-01-30T11:20:06;26.10;;;15.90;;
34204;SDS011;20471;49.680;20.074;2023-01-30T11:22:45;21.90;;;14.50;;
34204;SDS011;20471;49.680;20.074;2023-01-30T11:25:19;22.80;;;15.50;;
34204;SDS011;20471;49.680;20.074;2023-01-30T11:27:59;25.30;;;15.50;;
34204;SDS011;20471;49.680;20.074;2023-01-30T11:30:32;22.80;;;15.40;;
34204;SDS011;20471;49.680;20.074;2023-01-30T11:35:43;25.50;;;15.80;;
34204;SDS011;20471;49.680;20.074;2023-01-30T11:38:35;25.50;;;16.30;;
34204;SDS011;20471;49.680;20.074;2023-01-30T11:41:18;27.20;;;16.30;;
34204;SDS011;20471;49.680;20.074;2023-01-30T11:43:48;28.70;;;17.40;;
34204;SDS011;20471;49.680;20.074;2023-01-30T11:46:17;23.90;;;15.20;;
34204;SDS011;20471;49.680;20.074;2023-01-30T11:48:54;23.60;;;14.30;;
34204;SDS011;20471;49.680;20.074;2023-01-30T11:51:27;20.70;;;14.40;;
34204;SDS011;20471;49.680;20.074;2023-01-30T11:53:57;24.30;;;14.80;;
34204;SDS011;20471;49.680;20.074;2023-01-30T11:59:28;27.90;;;16.10;;
34204;SDS011;20471;49.680;20.074;2023-01-30T12:02:23;29.00;;;17.00;;
34204;SDS011;20471;49.680;20.074;2023-01-30T12:10:54;29.30;;;17.30;;
34204;SDS011;20471;49.680;20.074;2023-01-30T12:13:37;26.70;;;17.80;;
34204;SDS011;20471;49.680;20.074;2023-01-30T12:16:18;27.90;;;17.10;;
34204;SDS011;20471;49.680;20.074;2023-01-30T12:27:18;30.50;;;18.40;;
34204;SDS011;20471;49.680;20.074;2023-01-30T12:33:00;28.40;;;17.90;;
34204;SDS011;20471;49.680;20.074;2023-01-30T12:47:29;32.40;;;19.20;;
34204;SDS011;20471;49.680;20.074;2023-01-30T12:59:21;23.90;;;15.00;;
34204;SDS011;20471;49.680;20.074;2023-01-30T13:07:53;25.00;;;15.80;;
34204;SDS011;20471;49.680;20.074;2023-01-30T13:11:04;26.10;;;14.80;;
34204;SDS011;20471;49.680;20.074;2023-01-30T13:14:00;26.10;;;15.70;;
34204;SDS011;20471;49.680;20.074;2023-01-30T13:16:36;24.40;;;16.20;;
34204;SDS011;20471;49.680;20.074;2023-01-30T13:19:05;26.50;;;15.90;;
34204;SDS011;20471;49.680;20.074;2023-01-30T13:27:43;24.40;;;15.20;;
34204;SDS011;20471;49.680;20.074;2023-01-30T13:30:20;24.30;;;15.10;;
34204;SDS011;20471;49.680;20.074;2023-01-30T13:32:56;24.40;;;15.50;;
34204;SDS011;20471;49.680;20.074;2023-01-30T13:35:33;22.30;;;14.30;;
34204;SDS011;20471;49.680;20.074;2023-01-30T13:38:06;24.70;;;15.90;;
34204;SDS011;20471;49.680;20.074;2023-01-30T13:40:39;24.90;;;15.70;;
34204;SDS011;20471;49.680;20.074;2023-01-30T13:45:45;35.10;;;22.20;;
34204;SDS011;20471;49.680;20.074;2023-01-30T14:08:25;28.00;;;16.40;;
34204;SDS011;20471;49.680;20.074;2023-01-30T14:11:00;26.80;;;16.80;;
34204;SDS011;20471;49.680;20.074;2023-01-30T14:13:29;28.90;;;18.20;;
34204;SDS011;20471;49.680;20.074;2023-01-30T14:16:02;41.00;;;23.00;;
34204;SDS011;20471;49.680;20.074;2023-01-30T14:18:32;22.00;;;14.40;;
34204;SDS011;20471;49.680;20.074;2023-01-30T14:24:01;34.90;;;18.80;;
34204;SDS011;20471;49.680;20.074;2023-01-30T14:34:44;31.70;;;18.80;;
34204;SDS011;20471;49.680;20.074;2023-01-30T15:04:52;31.10;;;17.90;;
34204;SDS011;20471;49.680;20.074;2023-01-30T15:16:23;27.70;;;16.80;;
34204;SDS011;20471;49.680;20.074;2023-01-30T15:30:26;35.20;;;20.70;;
34204;SDS011;20471;49.680;20.074;2023-01-30T15:35:54;32.00;;;18.40;;
34204;SDS011;20471;49.680;20.074;2023-01-30T15:38:24;32.50;;;20.70;;
34204;SDS011;20471;49.680;20.074;2023-01-30T15:41:04;31.70;;;19.30;;
34204;SDS011;20471;49.680;20.074;2023-01-30T15:46:09;28.30;;;16.70;;
34204;SDS011;20471;49.680;20.074;2023-01-30T15:51:14;32.10;;;17.60;;
34204;SDS011;20471;49.680;20.074;2023-01-30T15:53:46;29.70;;;17.70;;
34204;SDS011;20471;49.680;20.074;2023-01-30T15:56:21;40.30;;;22.70;;
34204;SDS011;20471;49.680;20.074;2023-01-30T15:58:52;41.70;;;21.60;;
34204;SDS011;20471;49.680;20.074;2023-01-30T16:01:23;41.40;;;22.10;;
34204;SDS011;20471;49.680;20.074;2023-01-30T16:03:51;37.70;;;19.00;;
34204;SDS011;20471;49.680;20.074;2023-01-30T16:06:27;37.00;;;19.60;;
34204;SDS011;20471;49.680;20.074;2023-01-30T16:11:37;47.70;;;25.60;;
34204;SDS011;20471;49.680;20.074;2023-01-30T16:14:13;36.30;;;21.20;;
34204;SDS011;20471;49.680;20.074;2023-01-30T16:16:55;39.60;;;21.30;;
34204;SDS011;20471;49.680;20.074;2023-01-30T16:19:30;27.70;;;16.00;;
34204;SDS011;20471;49.680;20.074;2023-01-30T16:22:02;29.20;;;17.40;;
34204;SDS011;20471;49.680;20.074;2023-01-30T16:24:33;44.70;;;23.20;;
34204;SDS011;20471;49.680;20.074;2023-01-30T16:27:05;57.00;;;28.80;;
34204;SDS011;20471;49.680;20.074;2023-01-30T16:29:42;68.90;;;32.00;;
34204;SDS011;20471;49.680;20.074;2023-01-30T16:32:24;39.00;;;21.10;;
34204;SDS011;20471;49.680;20.074;2023-01-30T16:37:52;40.10;;;20.90;;
34204;SDS011;20471;49.680;20.074;2023-01-30T16:40:23;30.90;;;17.70;;
34204;SDS011;20471;49.680;20.074;2023-01-30T16:50:46;35.30;;;20.20;;
34204;SDS011;20471;49.680;20.074;2023-01-30T16:53:28;38.00;;;21.10;;
34204;SDS011;20471;49.680;20.074;2023-01-30T16:56:04;29.60;;;18.40;;
34204;SDS011;20471;49.680;20.074;2023-01-30T16:58:36;46.80;;;24.90;;
34204;SDS011;20471;49.680;20.074;2023-01-30T17:01:07;41.50;;;22.50;;
34204;SDS011;20471;49.680;20.074;2023-01-30T17:03:40;35.10;;;19.00;;
34204;SDS011;20471;49.680;20.074;2023-01-30T17:09:33;42.00;;;22.50;;
34204;SDS011;20471;49.680;20.074;2023-01-30T17:12:30;44.90;;;22.80;;
34204;SDS011;20471;49.680;20.074;2023-01-30T17:17:39;35.90;;;21.20;;
34204;SDS011;20471;49.680;20.074;2023-01-30T17:20:09;37.80;;;20.40;;
34204;SDS011;20471;49.680;20.074;2023-01-30T17:22:43;41.70;;;19.60;;
34204;SDS011;20471;49.680;20.074;2023-01-30T17:25:16;39.50;;;20.40;;
34204;SDS011;20471;49.680;20.074;2023-01-30T17:27:57;36.00;;;18.90;;
34204;SDS011;20471;49.680;20.074;2023-01-30T17:30:26;34.70;;;18.20;;
34204;SDS011;20471;49.680;20.074;2023-01-30T17:32:56;34.80;;;18.90;;
34204;SDS011;20471;49.680;20.074;2023-01-30T17:35:25;30.40;;;17.40;;
34204;SDS011;20471;49.680;20.074;2023-01-30T17:37:55;26.00;;;15.40;;
34204;SDS011;20471;49.680;20.074;2023-01-30T17:40:33;26.50;;;17.30;;
34204;SDS011;20471;49.680;20.074;2023-01-30T17:43:04;34.10;;;19.20;;
34204;SDS011;20471;49.680;20.074;2023-01-30T17:45:32;31.00;;;18.30;;
34204;SDS011;20471;49.680;20.074;2023-01-30T17:48:02;36.30;;;20.70;;
34204;SDS011;20471;49.680;20.074;2023-01-30T17:50:31;39.60;;;22.10;;
34204;SDS011;20471;49.680;20.074;2023-01-30T17:53:02;41.00;;;22.90;;
34204;SDS011;20471;49.680;20.074;2023-01-30T17:55:34;38.30;;;21.60;;
34204;SDS011;20471;49.680;20.074;2023-01-30T17:58:03;40.10;;;21.90;;
34204;SDS011;20471;49.680;20.074;2023-01-30T18:00:32;41.20;;;21.90;;
34204;SDS011;20471;49.680;20.074;2023-01-30T18:03:01;37.90;;;22.80;;
34204;SDS011;20471;49.680;20.074;2023-01-30T18:05:30;40.50;;;22.90;;
34204;SDS011;20471;49.680;20.074;2023-01-30T18:07:59;40.90;;;22.90;;
34204;SDS011;20471;49.680;20.074;2023-01-30T18:10:30;35.70;;;20.20;;
34204;SDS011;20471;49.680;20.074;2023-01-30T18:12:59;31.40;;;19.30;;
34204;SDS011;20471;49.680;20.074;2023-01-30T18:15:28;32.20;;;18.40;;
34204;SDS011;20471;49.680;20.074;2023-01-30T18:17:56;31.40;;;18.70;;
34204;SDS011;20471;49.680;20.074;2023-01-30T18:20:26;35.30;;;20.10;;
34204;SDS011;20471;49.680;20.074;2023-01-30T18:22:55;45.10;;;22.60;;
34204;SDS011;20471;49.680;20.074;2023-01-30T18:25:25;41.30;;;22.90;;
34204;SDS011;20471;49.680;20.074;2023-01-30T18:27:58;32.00;;;18.30;;
34204;SDS011;20471;49.680;20.074;2023-01-30T18:30:28;31.10;;;18.90;;
34204;SDS011;20471;49.680;20.074;2023-01-30T18:32:58;34.10;;;19.60;;
34204;SDS011;20471;49.680;20.074;2023-01-30T18:35:26;31.60;;;18.20;;
34204;SDS011;20471;49.680;20.074;2023-01-30T18:37:56;30.10;;;16.90;;
34204;SDS011;20471;49.680;20.074;2023-01-30T18:40:40;29.20;;;15.80;;